sensor_id;sensor_type;location;lat;lon;timestamp;P1;durP1;ratioP1;P2;durP2;ratioP2
21480;SDS011;10902;48.158;8.634;2023-07-31T00:00:34;6.88;;;3.00;;
21480;SDS011;10902;48.158;8.634;2023-07-31T00:03:20;8.20;;;3.13;;
21480;SDS011;10902;48.158;8.634;2023-07-31T00:06:05;8.07;;;3.28;;
21480;SDS011;10902;48.158;8.634;2023-07-31T00:08:51;6.82;;;3.25;;
21480;SDS011;10902;48.158;8.634;2023-07-31T00:11:36;5.93;;;3.10;;
21480;SDS011;10902;48.158;8.634;2023-07-31T00:14:22;10.23;;;3.40;;
21480;SDS011;10902;48.158;8.634;2023-07-31T00:17:07;9.45;;;3.65;;
21480;SDS011;10902;48.158;8.634;2023-07-31T00:19:53;7.97;;;3.47;;
21480;SDS011;10902;48.158;8.634;2023-07-31T00:22:39;6.95;;;3.40;;
21480;SDS011;10902;48.158;8.634;2023-07-31T00:25:25;6.53;;;3.42;;
21480;SDS011;10902;48.158;8.634;2023-07-31T00:28:10;8.20;;;3.95;;
21480;SDS011;10902;48.158;8.634;2023-07-31T00:30:56;6.35;;;3.08;;
21480;SDS011;10902;48.158;8.634;2023-07-31T00:33:41;8.68;;;4.05;;
21480;SDS011;10902;48.158;8.634;2023-07-31T00:36:30;6.88;;;3.30;;
21480;SDS011;10902;48.158;8.634;2023-07-31T00:39:16;6.30;;;3.20;;
21480;SDS011;10902;48.158;8.634;2023-07-31T00:42:02;8.45;;;3.42;;
21480;SDS011;10902;48.158;8.634;2023-07-31T00:44:47;10.02;;;3.28;;
21480;SDS011;10902;48.158;8.634;2023-07-31T00:47:33;7.38;;;3.78;;
21480;SDS011;10902;48.158;8.634;2023-07-31T00:50:19;7.80;;;3.40;;
21480;SDS011;10902;48.158;8.634;2023-07-31T00:53:04;8.07;;;3.30;;
21480;SDS011;10902;48.158;8.634;2023-07-31T00:55:50;5.65;;;3.10;;
21480;SDS011;10902;48.158;8.634;2023-07-31T00:58:37;9.75;;;3.80;;
21480;SDS011;10902;48.158;8.634;2023-07-31T01:01:23;6.80;;;3.38;;
21480;SDS011;10902;48.158;8.634;2023-07-31T01:04:09;8.60;;;3.25;;
21480;SDS011;10902;48.158;8.634;2023-07-31T01:08:04;7.13;;;3.20;;
21480;SDS011;10902;48.158;8.634;2023-07-31T01:10:26;7.15;;;3.08;;
21480;SDS011;10902;48.158;8.634;2023-07-31T01:13:15;8.13;;;3.40;;
21480;SDS011;10902;48.158;8.634;2023-07-31T01:16:02;9.40;;;3.53;;
21480;SDS011;10902;48.158;8.634;2023-07-31T01:18:48;9.30;;;3.80;;
21480;SDS011;10902;48.158;8.634;2023-07-31T01:25:15;7.38;;;3.58;;
21480;SDS011;10902;48.158;8.634;2023-07-31T01:28:20;8.43;;;4.10;;
21480;SDS011;10902;48.158;8.634;2023-07-31T01:31:14;9.27;;;4.00;;
21480;SDS011;10902;48.158;8.634;2023-07-31T01:34:03;6.68;;;3.75;;
21480;SDS011;10902;48.158;8.634;2023-07-31T01:36:49;9.13;;;3.97;;
21480;SDS011;10902;48.158;8.634;2023-07-31T01:39:35;7.32;;;3.40;;
21480;SDS011;10902;48.158;8.634;2023-07-31T01:42:20;7.90;;;3.47;;
21480;SDS011;10902;48.158;8.634;2023-07-31T01:45:06;6.68;;;3.55;;
21480;SDS011;10902;48.158;8.634;2023-07-31T01:47:52;6.10;;;3.50;;
21480;SDS011;10902;48.158;8.634;2023-07-31T01:50:37;8.43;;;3.80;;
21480;SDS011;10902;48.158;8.634;2023-07-31T01:53:23;7.43;;;3.63;;
21480;SDS011;10902;48.158;8.634;2023-07-31T01:56:09;8.35;;;3.78;;
21480;SDS011;10902;48.158;8.634;2023-07-31T01:58:54;8.25;;;3.97;;
21480;SDS011;10902;48.158;8.634;2023-07-31T02:01:40;9.20;;;4.20;;
21480;SDS011;10902;48.158;8.634;2023-07-31T02:04:25;7.78;;;4.03;;
21480;SDS011;10902;48.158;8.634;2023-07-31T02:07:11;10.45;;;4.32;;
21480;SDS011;10902;48.158;8.634;2023-07-31T02:09:56;8.13;;;4.50;;
21480;SDS011;10902;48.158;8.634;2023-07-31T02:12:42;7.78;;;4.15;;
21480;SDS011;10902;48.158;8.634;2023-07-31T02:15:27;7.72;;;3.70;;
21480;SDS011;10902;48.158;8.634;2023-07-31T02:18:13;8.20;;;3.80;;
21480;SDS011;10902;48.158;8.634;2023-07-31T02:20:58;7.55;;;3.80;;
21480;SDS011;10902;48.158;8.634;2023-07-31T02:23:44;8.27;;;3.97;;
21480;SDS011;10902;48.158;8.634;2023-07-31T02:26:30;10.77;;;4.88;;
21480;SDS011;10902;48.158;8.634;2023-07-31T02:29:15;7.75;;;4.15;;
21480;SDS011;10902;48.158;8.634;2023-07-31T02:32:01;8.60;;;4.38;;
21480;SDS011;10902;48.158;8.634;2023-07-31T02:34:46;10.13;;;5.70;;
21480;SDS011;10902;48.158;8.634;2023-07-31T02:37:33;9.38;;;4.97;;
21480;SDS011;10902;48.158;8.634;2023-07-31T02:40:19;8.45;;;4.97;;
21480;SDS011;10902;48.158;8.634;2023-07-31T02:43:04;8.18;;;4.85;;
21480;SDS011;10902;48.158;8.634;2023-07-31T02:45:53;8.10;;;4.35;;
21480;SDS011;10902;48.158;8.634;2023-07-31T02:48:39;9.25;;;4.13;;
21480;SDS011;10902;48.158;8.634;2023-07-31T02:51:24;9.10;;;4.82;;
21480;SDS011;10902;48.158;8.634;2023-07-31T02:54:10;9.07;;;4.68;;
21480;SDS011;10902;48.158;8.634;2023-07-31T02:56:55;8.10;;;4.72;;
21480;SDS011;10902;48.158;8.634;2023-07-31T02:59:41;10.25;;;4.82;;
21480;SDS011;10902;48.158;8.634;2023-07-31T03:02:26;9.75;;;5.15;;
21480;SDS011;10902;48.158;8.634;2023-07-31T03:05:12;7.43;;;4.75;;
21480;SDS011;10902;48.158;8.634;2023-07-31T03:07:58;8.52;;;4.57;;
21480;SDS011;10902;48.158;8.634;2023-07-31T03:10:43;8.02;;;4.47;;
21480;SDS011;10902;48.158;8.634;2023-07-31T03:13:29;8.25;;;4.53;;
21480;SDS011;10902;48.158;8.634;2023-07-31T03:16:14;8.35;;;4.57;;
21480;SDS011;10902;48.158;8.634;2023-07-31T03:19:00;9.63;;;4.78;;
21480;SDS011;10902;48.158;8.634;2023-07-31T03:21:46;10.00;;;4.57;;
21480;SDS011;10902;48.158;8.634;2023-07-31T03:24:31;9.93;;;5.13;;
21480;SDS011;10902;48.158;8.634;2023-07-31T03:27:17;8.75;;;4.30;;
21480;SDS011;10902;48.158;8.634;2023-07-31T03:30:03;7.28;;;4.47;;
21480;SDS011;10902;48.158;8.634;2023-07-31T03:32:49;8.02;;;4.40;;
21480;SDS011;10902;48.158;8.634;2023-07-31T03:35:35;7.45;;;4.65;;
21480;SDS011;10902;48.158;8.634;2023-07-31T03:38:20;11.75;;;4.78;;
21480;SDS011;10902;48.158;8.634;2023-07-31T03:41:06;10.77;;;4.40;;
21480;SDS011;10902;48.158;8.634;2023-07-31T03:43:52;7.65;;;3.95;;
21480;SDS011;10902;48.158;8.634;2023-07-31T03:46:37;9.95;;;4.90;;
21480;SDS011;10902;48.158;8.634;2023-07-31T03:49:23;7.53;;;4.47;;
21480;SDS011;10902;48.158;8.634;2023-07-31T03:52:14;8.35;;;4.60;;
21480;SDS011;10902;48.158;8.634;2023-07-31T03:55:00;8.10;;;4.55;;
21480;SDS011;10902;48.158;8.634;2023-07-31T03:57:46;7.25;;;4.70;;
21480;SDS011;10902;48.158;8.634;2023-07-31T04:00:32;8.82;;;5.40;;
21480;SDS011;10902;48.158;8.634;2023-07-31T04:03:17;7.82;;;4.97;;
21480;SDS011;10902;48.158;8.634;2023-07-31T04:06:03;10.93;;;5.22;;
21480;SDS011;10902;48.158;8.634;2023-07-31T04:08:48;7.93;;;4.70;;
21480;SDS011;10902;48.158;8.634;2023-07-31T04:11:34;10.68;;;4.85;;
21480;SDS011;10902;48.158;8.634;2023-07-31T04:14:19;12.48;;;5.30;;
21480;SDS011;10902;48.158;8.634;2023-07-31T04:17:05;9.18;;;4.93;;
21480;SDS011;10902;48.158;8.634;2023-07-31T04:19:51;9.70;;;5.57;;
21480;SDS011;10902;48.158;8.634;2023-07-31T04:22:36;8.77;;;4.82;;
21480;SDS011;10902;48.158;8.634;2023-07-31T04:25:22;9.65;;;4.57;;
21480;SDS011;10902;48.158;8.634;2023-07-31T04:28:07;8.05;;;4.10;;
21480;SDS011;10902;48.158;8.634;2023-07-31T04:30:53;7.85;;;3.78;;
21480;SDS011;10902;48.158;8.634;2023-07-31T04:33:39;9.18;;;4.68;;
21480;SDS011;10902;48.158;8.634;2023-07-31T04:36:24;9.18;;;4.15;;
21480;SDS011;10902;48.158;8.634;2023-07-31T04:39:10;8.07;;;3.97;;
21480;SDS011;10902;48.158;8.634;2023-07-31T04:41:55;7.13;;;3.67;;
21480;SDS011;10902;48.158;8.634;2023-07-31T04:44:41;8.30;;;3.78;;
21480;SDS011;10902;48.158;8.634;2023-07-31T04:47:26;7.28;;;3.53;;
21480;SDS011;10902;48.158;8.634;2023-07-31T04:50:12;6.78;;;3.55;;
21480;SDS011;10902;48.158;8.634;2023-07-31T04:52:57;6.80;;;3.85;;
21480;SDS011;10902;48.158;8.634;2023-07-31T04:55:43;7.93;;;3.63;;
21480;SDS011;10902;48.158;8.634;2023-07-31T04:58:29;9.00;;;3.65;;
21480;SDS011;10902;48.158;8.634;2023-07-31T05:01:14;8.52;;;3.70;;
21480;SDS011;10902;48.158;8.634;2023-07-31T05:04:00;7.43;;;3.85;;
21480;SDS011;10902;48.158;8.634;2023-07-31T05:06:46;8.77;;;4.05;;
21480;SDS011;10902;48.158;8.634;2023-07-31T05:09:31;6.97;;;3.85;;
21480;SDS011;10902;48.158;8.634;2023-07-31T05:12:17;9.07;;;3.97;;
21480;SDS011;10902;48.158;8.634;2023-07-31T05:15:03;6.00;;;3.58;;
21480;SDS011;10902;48.158;8.634;2023-07-31T05:17:49;9.18;;;3.45;;
21480;SDS011;10902;48.158;8.634;2023-07-31T05:20:34;10.80;;;3.83;;
21480;SDS011;10902;48.158;8.634;2023-07-31T05:23:20;7.68;;;3.63;;
21480;SDS011;10902;48.158;8.634;2023-07-31T05:26:06;6.35;;;3.28;;
21480;SDS011;10902;48.158;8.634;2023-07-31T05:28:52;8.75;;;3.50;;
21480;SDS011;10902;48.158;8.634;2023-07-31T05:31:38;10.65;;;3.60;;
21480;SDS011;10902;48.158;8.634;2023-07-31T05:34:23;8.95;;;3.45;;
21480;SDS011;10902;48.158;8.634;2023-07-31T05:37:10;8.63;;;3.90;;
21480;SDS011;10902;48.158;8.634;2023-07-31T05:39:56;8.25;;;3.28;;
21480;SDS011;10902;48.158;8.634;2023-07-31T05:42:41;9.10;;;3.83;;
21480;SDS011;10902;48.158;8.634;2023-07-31T05:45:27;7.00;;;3.22;;
21480;SDS011;10902;48.158;8.634;2023-07-31T05:48:13;9.13;;;3.58;;
21480;SDS011;10902;48.158;8.634;2023-07-31T05:50:58;11.07;;;3.25;;
21480;SDS011;10902;48.158;8.634;2023-07-31T05:53:44;6.22;;;2.83;;
21480;SDS011;10902;48.158;8.634;2023-07-31T05:56:29;6.20;;;3.45;;
21480;SDS011;10902;48.158;8.634;2023-07-31T05:59:16;6.50;;;2.80;;
21480;SDS011;10902;48.158;8.634;2023-07-31T06:02:02;8.25;;;3.35;;
21480;SDS011;10902;48.158;8.634;2023-07-31T06:04:47;8.38;;;3.60;;
21480;SDS011;10902;48.158;8.634;2023-07-31T06:07:33;7.50;;;3.00;;
21480;SDS011;10902;48.158;8.634;2023-07-31T06:10:19;5.43;;;2.45;;
21480;SDS011;10902;48.158;8.634;2023-07-31T06:13:04;7.60;;;2.63;;
21480;SDS011;10902;48.158;8.634;2023-07-31T06:15:50;8.02;;;2.95;;
21480;SDS011;10902;48.158;8.634;2023-07-31T06:18:35;6.05;;;2.63;;
21480;SDS011;10902;48.158;8.634;2023-07-31T06:21:21;7.63;;;2.58;;
21480;SDS011;10902;48.158;8.634;2023-07-31T06:24:07;8.52;;;2.80;;
21480;SDS011;10902;48.158;8.634;2023-07-31T06:26:53;6.63;;;2.40;;
21480;SDS011;10902;48.158;8.634;2023-07-31T06:29:38;9.10;;;3.03;;
21480;SDS011;10902;48.158;8.634;2023-07-31T06:32:24;7.82;;;2.85;;
21480;SDS011;10902;48.158;8.634;2023-07-31T06:35:10;5.95;;;2.30;;
21480;SDS011;10902;48.158;8.634;2023-07-31T06:37:55;6.32;;;2.30;;
21480;SDS011;10902;48.158;8.634;2023-07-31T06:40:41;7.00;;;2.47;;
21480;SDS011;10902;48.158;8.634;2023-07-31T06:43:27;10.15;;;2.75;;
21480;SDS011;10902;48.158;8.634;2023-07-31T06:46:12;5.95;;;2.08;;
21480;SDS011;10902;48.158;8.634;2023-07-31T06:48:58;6.57;;;2.28;;
21480;SDS011;10902;48.158;8.634;2023-07-31T06:51:44;5.80;;;2.20;;
21480;SDS011;10902;48.158;8.634;2023-07-31T06:54:30;6.53;;;2.30;;
21480;SDS011;10902;48.158;8.634;2023-07-31T06:57:15;8.85;;;2.35;;
21480;SDS011;10902;48.158;8.634;2023-07-31T07:00:01;6.10;;;2.30;;
21480;SDS011;10902;48.158;8.634;2023-07-31T07:02:49;5.35;;;2.15;;
21480;SDS011;10902;48.158;8.634;2023-07-31T07:05:35;7.32;;;2.28;;
21480;SDS011;10902;48.158;8.634;2023-07-31T07:08:20;5.35;;;1.90;;
21480;SDS011;10902;48.158;8.634;2023-07-31T07:11:06;5.43;;;2.03;;
21480;SDS011;10902;48.158;8.634;2023-07-31T07:13:51;7.63;;;2.20;;
21480;SDS011;10902;48.158;8.634;2023-07-31T07:16:37;6.88;;;2.25;;
21480;SDS011;10902;48.158;8.634;2023-07-31T07:19:25;5.47;;;1.88;;
21480;SDS011;10902;48.158;8.634;2023-07-31T07:22:11;5.93;;;2.00;;
21480;SDS011;10902;48.158;8.634;2023-07-31T07:24:57;6.15;;;2.03;;
21480;SDS011;10902;48.158;8.634;2023-07-31T07:27:42;6.07;;;1.95;;
21480;SDS011;10902;48.158;8.634;2023-07-31T07:30:28;5.20;;;1.63;;
21480;SDS011;10902;48.158;8.634;2023-07-31T07:33:13;7.00;;;2.00;;
21480;SDS011;10902;48.158;8.634;2023-07-31T07:35:59;7.30;;;1.95;;
21480;SDS011;10902;48.158;8.634;2023-07-31T07:38:47;6.30;;;1.80;;
21480;SDS011;10902;48.158;8.634;2023-07-31T07:41:33;6.82;;;1.92;;
21480;SDS011;10902;48.158;8.634;2023-07-31T07:44:19;5.50;;;1.95;;
21480;SDS011;10902;48.158;8.634;2023-07-31T07:47:04;6.20;;;1.80;;
21480;SDS011;10902;48.158;8.634;2023-07-31T07:49:53;5.82;;;1.45;;
21480;SDS011;10902;48.158;8.634;2023-07-31T07:52:38;6.50;;;1.67;;
21480;SDS011;10902;48.158;8.634;2023-07-31T07:55:24;7.30;;;2.00;;
21480;SDS011;10902;48.158;8.634;2023-07-31T07:58:09;7.07;;;1.88;;
21480;SDS011;10902;48.158;8.634;2023-07-31T08:00:55;8.07;;;2.00;;
21480;SDS011;10902;48.158;8.634;2023-07-31T08:03:40;6.68;;;1.92;;
21480;SDS011;10902;48.158;8.634;2023-07-31T08:06:26;7.00;;;2.40;;
21480;SDS011;10902;48.158;8.634;2023-07-31T08:09:12;5.88;;;1.92;;
21480;SDS011;10902;48.158;8.634;2023-07-31T08:11:57;6.38;;;1.65;;
21480;SDS011;10902;48.158;8.634;2023-07-31T08:14:47;7.32;;;2.08;;
21480;SDS011;10902;48.158;8.634;2023-07-31T08:17:32;5.72;;;2.00;;
21480;SDS011;10902;48.158;8.634;2023-07-31T08:20:18;5.95;;;2.00;;
21480;SDS011;10902;48.158;8.634;2023-07-31T08:23:04;6.63;;;2.30;;
21480;SDS011;10902;48.158;8.634;2023-07-31T08:25:49;8.43;;;2.03;;
21480;SDS011;10902;48.158;8.634;2023-07-31T08:28:35;7.72;;;1.90;;
21480;SDS011;10902;48.158;8.634;2023-07-31T08:31:21;6.72;;;2.17;;
21480;SDS011;10902;48.158;8.634;2023-07-31T08:34:07;5.25;;;1.95;;
21480;SDS011;10902;48.158;8.634;2023-07-31T08:36:52;5.95;;;1.80;;
21480;SDS011;10902;48.158;8.634;2023-07-31T08:39:38;8.40;;;2.60;;
21480;SDS011;10902;48.158;8.634;2023-07-31T08:42:26;7.63;;;1.98;;
21480;SDS011;10902;48.158;8.634;2023-07-31T08:45:16;6.28;;;1.88;;
21480;SDS011;10902;48.158;8.634;2023-07-31T08:48:02;4.68;;;1.73;;
21480;SDS011;10902;48.158;8.634;2023-07-31T08:50:48;6.18;;;1.92;;
21480;SDS011;10902;48.158;8.634;2023-07-31T08:53:35;6.50;;;1.88;;
21480;SDS011;10902;48.158;8.634;2023-07-31T08:56:20;4.70;;;1.63;;
21480;SDS011;10902;48.158;8.634;2023-07-31T08:59:06;5.63;;;1.88;;
21480;SDS011;10902;48.158;8.634;2023-07-31T09:01:53;5.22;;;1.70;;
21480;SDS011;10902;48.158;8.634;2023-07-31T09:04:42;5.78;;;1.90;;
21480;SDS011;10902;48.158;8.634;2023-07-31T09:07:28;8.07;;;2.17;;
21480;SDS011;10902;48.158;8.634;2023-07-31T09:10:16;5.07;;;1.67;;
21480;SDS011;10902;48.158;8.634;2023-07-31T09:13:02;4.68;;;1.80;;
21480;SDS011;10902;48.158;8.634;2023-07-31T09:15:48;5.63;;;2.10;;
21480;SDS011;10902;48.158;8.634;2023-07-31T09:18:41;5.97;;;1.75;;
21480;SDS011;10902;48.158;8.634;2023-07-31T09:21:48;5.35;;;1.85;;
21480;SDS011;10902;48.158;8.634;2023-07-31T09:24:34;7.30;;;1.92;;
21480;SDS011;10902;48.158;8.634;2023-07-31T09:27:20;5.90;;;1.98;;
21480;SDS011;10902;48.158;8.634;2023-07-31T09:30:05;3.80;;;1.50;;
21480;SDS011;10902;48.158;8.634;2023-07-31T09:32:59;5.50;;;2.13;;
21480;SDS011;10902;48.158;8.634;2023-07-31T09:35:47;7.40;;;2.03;;
21480;SDS011;10902;48.158;8.634;2023-07-31T09:38:35;6.55;;;1.85;;
21480;SDS011;10902;48.158;8.634;2023-07-31T09:41:21;4.82;;;1.80;;
21480;SDS011;10902;48.158;8.634;2023-07-31T09:44:07;4.85;;;1.65;;
21480;SDS011;10902;48.158;8.634;2023-07-31T09:46:52;6.05;;;2.30;;
21480;SDS011;10902;48.158;8.634;2023-07-31T09:49:38;4.63;;;1.75;;
21480;SDS011;10902;48.158;8.634;2023-07-31T09:52:25;4.68;;;1.80;;
21480;SDS011;10902;48.158;8.634;2023-07-31T09:55:11;4.88;;;1.92;;
21480;SDS011;10902;48.158;8.634;2023-07-31T09:57:57;5.45;;;2.00;;
21480;SDS011;10902;48.158;8.634;2023-07-31T10:00:43;6.90;;;2.28;;
21480;SDS011;10902;48.158;8.634;2023-07-31T10:03:30;6.35;;;2.13;;
21480;SDS011;10902;48.158;8.634;2023-07-31T10:06:17;7.22;;;2.28;;
21480;SDS011;10902;48.158;8.634;2023-07-31T10:09:05;6.15;;;1.98;;
21480;SDS011;10902;48.158;8.634;2023-07-31T10:11:53;4.85;;;2.10;;
21480;SDS011;10902;48.158;8.634;2023-07-31T10:14:44;7.68;;;2.38;;
21480;SDS011;10902;48.158;8.634;2023-07-31T10:17:30;4.68;;;1.85;;
21480;SDS011;10902;48.158;8.634;2023-07-31T10:20:19;4.70;;;1.80;;
21480;SDS011;10902;48.158;8.634;2023-07-31T10:23:06;5.30;;;1.73;;
21480;SDS011;10902;48.158;8.634;2023-07-31T10:25:53;6.10;;;2.10;;
21480;SDS011;10902;48.158;8.634;2023-07-31T10:28:39;6.85;;;2.03;;
21480;SDS011;10902;48.158;8.634;2023-07-31T10:31:26;5.88;;;1.80;;
21480;SDS011;10902;48.158;8.634;2023-07-31T10:34:13;4.93;;;1.77;;
21480;SDS011;10902;48.158;8.634;2023-07-31T10:40:18;7.10;;;2.20;;
21480;SDS011;10902;48.158;8.634;2023-07-31T10:43:08;5.28;;;1.75;;
21480;SDS011;10902;48.158;8.634;2023-07-31T10:45:56;6.55;;;2.20;;
21480;SDS011;10902;48.158;8.634;2023-07-31T10:48:41;6.22;;;1.63;;
21480;SDS011;10902;48.158;8.634;2023-07-31T10:51:34;4.75;;;1.60;;
21480;SDS011;10902;48.158;8.634;2023-07-31T10:54:20;3.75;;;1.50;;
21480;SDS011;10902;48.158;8.634;2023-07-31T10:57:21;4.80;;;1.50;;
21480;SDS011;10902;48.158;8.634;2023-07-31T11:03:15;5.40;;;1.90;;
21480;SDS011;10902;48.158;8.634;2023-07-31T11:06:02;5.57;;;1.70;;
21480;SDS011;10902;48.158;8.634;2023-07-31T11:08:49;5.75;;;1.95;;
21480;SDS011;10902;48.158;8.634;2023-07-31T11:11:35;5.97;;;2.08;;
21480;SDS011;10902;48.158;8.634;2023-07-31T11:14:21;5.60;;;1.67;;
21480;SDS011;10902;48.158;8.634;2023-07-31T11:17:07;5.00;;;1.77;;
21480;SDS011;10902;48.158;8.634;2023-07-31T11:19:53;4.80;;;1.75;;
21480;SDS011;10902;48.158;8.634;2023-07-31T11:22:38;5.32;;;1.85;;
21480;SDS011;10902;48.158;8.634;2023-07-31T11:25:24;4.63;;;1.92;;
21480;SDS011;10902;48.158;8.634;2023-07-31T11:28:13;5.05;;;1.95;;
21480;SDS011;10902;48.158;8.634;2023-07-31T11:31:00;5.32;;;2.22;;
21480;SDS011;10902;48.158;8.634;2023-07-31T11:33:47;4.00;;;1.90;;
21480;SDS011;10902;48.158;8.634;2023-07-31T11:36:32;5.00;;;2.15;;
21480;SDS011;10902;48.158;8.634;2023-07-31T11:39:18;5.78;;;2.58;;
21480;SDS011;10902;48.158;8.634;2023-07-31T11:42:04;6.63;;;3.08;;
21480;SDS011;10902;48.158;8.634;2023-07-31T11:44:50;5.97;;;2.63;;
21480;SDS011;10902;48.158;8.634;2023-07-31T11:47:36;5.95;;;2.40;;
21480;SDS011;10902;48.158;8.634;2023-07-31T11:50:23;5.13;;;2.78;;
21480;SDS011;10902;48.158;8.634;2023-07-31T11:53:12;5.00;;;2.60;;
21480;SDS011;10902;48.158;8.634;2023-07-31T11:56:02;5.10;;;2.63;;
21480;SDS011;10902;48.158;8.634;2023-07-31T11:58:50;5.38;;;2.90;;
21480;SDS011;10902;48.158;8.634;2023-07-31T12:01:38;5.15;;;2.75;;
21480;SDS011;10902;48.158;8.634;2023-07-31T12:04:24;6.00;;;2.53;;
21480;SDS011;10902;48.158;8.634;2023-07-31T12:07:11;5.22;;;2.28;;
21480;SDS011;10902;48.158;8.634;2023-07-31T12:09:57;5.85;;;2.85;;
21480;SDS011;10902;48.158;8.634;2023-07-31T12:12:43;6.65;;;2.85;;
21480;SDS011;10902;48.158;8.634;2023-07-31T12:15:29;4.90;;;2.60;;
21480;SDS011;10902;48.158;8.634;2023-07-31T12:18:19;6.40;;;2.70;;
21480;SDS011;10902;48.158;8.634;2023-07-31T12:21:06;5.05;;;2.50;;
21480;SDS011;10902;48.158;8.634;2023-07-31T12:23:53;5.20;;;2.45;;
21480;SDS011;10902;48.158;8.634;2023-07-31T12:26:39;5.47;;;2.70;;
21480;SDS011;10902;48.158;8.634;2023-07-31T12:29:33;5.20;;;2.75;;
21480;SDS011;10902;48.158;8.634;2023-07-31T12:32:23;4.70;;;2.50;;
21480;SDS011;10902;48.158;8.634;2023-07-31T12:35:14;5.28;;;2.38;;
21480;SDS011;10902;48.158;8.634;2023-07-31T12:38:03;5.80;;;2.88;;
21480;SDS011;10902;48.158;8.634;2023-07-31T12:40:49;6.20;;;2.70;;
21480;SDS011;10902;48.158;8.634;2023-07-31T12:43:35;5.75;;;2.97;;
21480;SDS011;10902;48.158;8.634;2023-07-31T12:46:21;6.30;;;2.80;;
21480;SDS011;10902;48.158;8.634;2023-07-31T12:49:06;5.60;;;2.55;;
21480;SDS011;10902;48.158;8.634;2023-07-31T12:51:52;6.50;;;3.10;;
21480;SDS011;10902;48.158;8.634;2023-07-31T12:54:39;6.05;;;2.42;;
21480;SDS011;10902;48.158;8.634;2023-07-31T12:57:24;6.78;;;3.05;;
21480;SDS011;10902;48.158;8.634;2023-07-31T13:00:10;8.93;;;2.90;;
21480;SDS011;10902;48.158;8.634;2023-07-31T13:02:57;7.35;;;2.90;;
21480;SDS011;10902;48.158;8.634;2023-07-31T13:05:44;5.28;;;2.60;;
21480;SDS011;10902;48.158;8.634;2023-07-31T13:08:29;6.93;;;3.17;;
21480;SDS011;10902;48.158;8.634;2023-07-31T13:11:15;6.72;;;3.13;;
21480;SDS011;10902;48.158;8.634;2023-07-31T13:14:00;6.20;;;2.90;;
21480;SDS011;10902;48.158;8.634;2023-07-31T13:16:46;6.90;;;3.03;;
21480;SDS011;10902;48.158;8.634;2023-07-31T13:19:32;5.15;;;3.22;;
21480;SDS011;10902;48.158;8.634;2023-07-31T13:22:17;6.20;;;3.33;;
21480;SDS011;10902;48.158;8.634;2023-07-31T13:25:03;5.70;;;2.95;;
21480;SDS011;10902;48.158;8.634;2023-07-31T13:27:50;5.78;;;3.20;;
21480;SDS011;10902;48.158;8.634;2023-07-31T13:30:35;7.93;;;3.35;;
21480;SDS011;10902;48.158;8.634;2023-07-31T13:33:21;5.95;;;2.70;;
21480;SDS011;10902;48.158;8.634;2023-07-31T13:36:06;5.45;;;3.03;;
21480;SDS011;10902;48.158;8.634;2023-07-31T13:38:52;5.28;;;2.75;;
21480;SDS011;10902;48.158;8.634;2023-07-31T13:41:38;6.35;;;2.50;;
21480;SDS011;10902;48.158;8.634;2023-07-31T13:44:23;5.38;;;2.70;;
21480;SDS011;10902;48.158;8.634;2023-07-31T13:47:09;5.90;;;3.03;;
21480;SDS011;10902;48.158;8.634;2023-07-31T13:49:55;6.47;;;2.97;;
21480;SDS011;10902;48.158;8.634;2023-07-31T13:52:41;5.30;;;2.95;;
21480;SDS011;10902;48.158;8.634;2023-07-31T13:55:26;5.47;;;2.60;;
21480;SDS011;10902;48.158;8.634;2023-07-31T13:58:12;5.22;;;2.70;;
21480;SDS011;10902;48.158;8.634;2023-07-31T14:00:57;6.70;;;3.03;;
21480;SDS011;10902;48.158;8.634;2023-07-31T14:03:43;5.93;;;2.63;;
21480;SDS011;10902;48.158;8.634;2023-07-31T14:06:28;5.18;;;2.40;;
21480;SDS011;10902;48.158;8.634;2023-07-31T14:09:14;6.30;;;2.35;;
21480;SDS011;10902;48.158;8.634;2023-07-31T14:12:00;6.80;;;3.00;;
21480;SDS011;10902;48.158;8.634;2023-07-31T14:14:45;6.50;;;3.08;;
21480;SDS011;10902;48.158;8.634;2023-07-31T14:17:31;4.72;;;2.75;;
21480;SDS011;10902;48.158;8.634;2023-07-31T14:20:16;5.25;;;2.80;;
21480;SDS011;10902;48.158;8.634;2023-07-31T14:23:02;5.40;;;2.70;;
21480;SDS011;10902;48.158;8.634;2023-07-31T14:25:48;6.88;;;2.72;;
21480;SDS011;10902;48.158;8.634;2023-07-31T14:28:33;6.55;;;2.80;;
21480;SDS011;10902;48.158;8.634;2023-07-31T14:31:19;5.28;;;2.60;;
21480;SDS011;10902;48.158;8.634;2023-07-31T14:34:05;6.53;;;2.58;;
21480;SDS011;10902;48.158;8.634;2023-07-31T14:36:50;5.43;;;3.00;;
21480;SDS011;10902;48.158;8.634;2023-07-31T14:39:36;5.78;;;3.10;;
21480;SDS011;10902;48.158;8.634;2023-07-31T14:42:22;5.82;;;2.70;;
21480;SDS011;10902;48.158;8.634;2023-07-31T14:45:07;6.57;;;3.13;;
21480;SDS011;10902;48.158;8.634;2023-07-31T14:47:55;5.53;;;2.83;;
21480;SDS011;10902;48.158;8.634;2023-07-31T14:50:40;5.55;;;2.50;;
21480;SDS011;10902;48.158;8.634;2023-07-31T14:53:26;6.90;;;2.65;;
21480;SDS011;10902;48.158;8.634;2023-07-31T14:56:11;6.20;;;2.75;;
21480;SDS011;10902;48.158;8.634;2023-07-31T14:58:57;5.75;;;2.50;;
21480;SDS011;10902;48.158;8.634;2023-07-31T15:01:42;4.75;;;2.38;;
21480;SDS011;10902;48.158;8.634;2023-07-31T15:04:28;4.60;;;2.50;;
21480;SDS011;10902;48.158;8.634;2023-07-31T15:07:14;5.35;;;2.50;;
21480;SDS011;10902;48.158;8.634;2023-07-31T15:10:03;6.65;;;2.67;;
21480;SDS011;10902;48.158;8.634;2023-07-31T15:12:49;5.97;;;2.60;;
21480;SDS011;10902;48.158;8.634;2023-07-31T15:15:34;5.65;;;2.40;;
21480;SDS011;10902;48.158;8.634;2023-07-31T15:18:20;4.70;;;2.53;;
21480;SDS011;10902;48.158;8.634;2023-07-31T15:21:06;5.10;;;2.35;;
21480;SDS011;10902;48.158;8.634;2023-07-31T15:23:54;5.18;;;2.60;;
21480;SDS011;10902;48.158;8.634;2023-07-31T15:26:40;6.78;;;2.83;;
21480;SDS011;10902;48.158;8.634;2023-07-31T15:29:27;6.38;;;2.38;;
21480;SDS011;10902;48.158;8.634;2023-07-31T15:32:13;7.40;;;2.88;;
21480;SDS011;10902;48.158;8.634;2023-07-31T15:34:58;6.05;;;2.47;;
21480;SDS011;10902;48.158;8.634;2023-07-31T15:37:44;4.97;;;2.92;;
21480;SDS011;10902;48.158;8.634;2023-07-31T15:40:29;7.32;;;2.65;;
21480;SDS011;10902;48.158;8.634;2023-07-31T15:43:16;6.00;;;2.60;;
21480;SDS011;10902;48.158;8.634;2023-07-31T15:46:03;4.60;;;2.63;;
21480;SDS011;10902;48.158;8.634;2023-07-31T15:48:49;6.70;;;2.70;;
21480;SDS011;10902;48.158;8.634;2023-07-31T15:51:34;5.72;;;2.85;;
21480;SDS011;10902;48.158;8.634;2023-07-31T15:54:20;6.15;;;2.40;;
21480;SDS011;10902;48.158;8.634;2023-07-31T15:57:06;6.57;;;2.30;;
21480;SDS011;10902;48.158;8.634;2023-07-31T15:59:51;5.20;;;2.47;;
21480;SDS011;10902;48.158;8.634;2023-07-31T16:02:37;6.32;;;2.28;;
21480;SDS011;10902;48.158;8.634;2023-07-31T16:05:23;4.57;;;2.53;;
21480;SDS011;10902;48.158;8.634;2023-07-31T16:08:09;5.25;;;2.70;;
21480;SDS011;10902;48.158;8.634;2023-07-31T16:10:54;5.60;;;2.45;;
21480;SDS011;10902;48.158;8.634;2023-07-31T16:13:41;5.13;;;2.40;;
21480;SDS011;10902;48.158;8.634;2023-07-31T16:16:26;5.90;;;2.50;;
21480;SDS011;10902;48.158;8.634;2023-07-31T16:19:12;4.68;;;2.20;;
21480;SDS011;10902;48.158;8.634;2023-07-31T16:21:58;4.85;;;2.38;;
21480;SDS011;10902;48.158;8.634;2023-07-31T16:24:43;4.75;;;1.90;;
21480;SDS011;10902;48.158;8.634;2023-07-31T16:27:29;5.53;;;2.30;;
21480;SDS011;10902;48.158;8.634;2023-07-31T16:30:14;5.18;;;2.55;;
21480;SDS011;10902;48.158;8.634;2023-07-31T16:33:00;4.38;;;1.90;;
21480;SDS011;10902;48.158;8.634;2023-07-31T16:35:45;6.47;;;2.67;;
21480;SDS011;10902;48.158;8.634;2023-07-31T16:38:31;4.93;;;2.30;;
21480;SDS011;10902;48.158;8.634;2023-07-31T16:41:17;4.32;;;1.98;;
21480;SDS011;10902;48.158;8.634;2023-07-31T16:44:03;4.68;;;2.33;;
21480;SDS011;10902;48.158;8.634;2023-07-31T16:46:49;5.70;;;2.28;;
21480;SDS011;10902;48.158;8.634;2023-07-31T16:49:34;5.03;;;2.25;;
21480;SDS011;10902;48.158;8.634;2023-07-31T16:52:20;4.95;;;2.08;;